Historyczne dane pomiarowe

Dodano dane terminowe – wersja testowa.

Dane z okresu 1951-2019

Wersja bazy: 1.34 [2019-03-16, lista zmian], aktualizacja planowana na 2019-04-15

Dane meteo z obszaru Polski uzyskane na podstawie danych udostępnionych przez Instytut Meteorologii i Gospodarki Wodnej – Państwowy Instytut Badawczy.

 

Wybierz Datę:    

       

TemperaturaWilgotnośćWiatrCiśnienieOpadyŚniegCzas trwania zjawisk
 Stacja t tx tn tng RH VA  wxwx mslp ppp RRR   cm mm wxwxwxwxwxwxwx
2004-08-13 15.4 20.7 11.2--- 5.7 1.0---- 0.0------------
2004-08-14 14.2 17.4 12.0--- 7.0 2.0---- 6.1------------
2004-08-15 14.1 20.4 8.2--- 2.3 0.7---- 0.0------------
2004-08-16 13.3 24.3 4.0--- 3.7 0.7---- 0.0------------
2004-08-17 15.1 24.8 5.2--- 3.3 1.0---- 0.0------------
2004-08-18 16.9 27.0 6.6--- 1.3 1.0---- 0.0------------
2004-08-19 18.3 29.7 8.7--- 2.0 0.7---- 0.0------------
2004-08-20 18.2 28.3 12.2--- 5.0 1.0---- 0.9------------
2004-08-21 15.8 20.4 13.0--- 7.0 1.3---- 0.4------------
2004-08-22 14.4 17.3 12.7--- 8.0 1.7---- 0.4------------
2004-08-23 11.7 19.9 5.0--- 3.0 0.7---- 0.0------------
2004-08-24 13.9 24.5 3.8--- 3.7 1.0---- 0.4------------
2004-08-25 16.2 21.7 13.4--- 6.7 1.7---- 0.0------------
2004-08-26 11.8 17.6 7.0--- 8.0 1.0---- 21.3------------
2004-08-27 13.7 17.4 11.4--- 6.0 1.3---- 0.1------------
2004-08-28 13.8 22.4 5.7--- 6.3 1.3---- 0.0------------
2004-08-29 14.1 24.3 6.0--- 5.3 0.7---- 3.0------------
2004-08-30 14.8 23.9 7.5--- 3.7 1.3---- 14.1------------
2004-08-31 12.4 16.9 9.6--- 7.3 0.3---- 5.8------------
2004-09-01 11.1 19.0 6.8--- 4.0 0.7---- 0.0------------
2004-09-02 11.3 20.8 4.6--- 3.3 1.0---- 0.0------------
2004-09-03 11.1 21.5 3.2--- 5.0 0.3---- 0.0------------
2004-09-04 11.5 20.4 3.9--- 4.3 1.0---- 0.0------------
2004-09-05 14.2 20.0 10.0--- 3.3 1.0---- 0.0------------
2004-09-06 13.0 22.6 5.4--- 2.7 0.7---- 0.0------------
2004-09-07 12.7 22.6 6.7--- 4.3 0.3---- 0.0------------
2004-09-08 11.5 16.8 6.4--- 6.0 1.3---- 0.0------------
2004-09-09 7.7 12.3 3.0--- 6.7 1.3---- 0.0------------
2004-09-10 6.7 16.4 0.4--- 3.3 0.3---- 0.0------------
2004-09-11 8.0 20.3 -1.8--- 2.7 1.7---- 0.0------------
169.1 ms

 

Źródłem pochodzenia danych jest Instytut Meteorologii i Gospodarki Wodnej – Państwowy Instytut Badawczy. Dane Instytutu Meteorologii i Gospodarki Wodnej – Państwowego Instytutu Badawczego zostały przetworzone.

Dane źródłowe można odnaleźć na stronie https://dane.imgw.pl